createdAt,value
2022-07-27T00:02:06.258Z,20.20
2022-07-27T00:04:35.374Z,20.10
2022-07-27T00:07:03.403Z,20.00
2022-07-27T00:09:31.186Z,20.00
2022-07-27T00:11:58.981Z,20.00
2022-07-27T00:14:26.720Z,19.90
2022-07-27T00:16:54.507Z,19.80
2022-07-27T00:19:23.805Z,19.80
2022-07-27T00:21:52.879Z,19.80
2022-07-27T00:24:20.599Z,19.70
2022-07-27T00:26:48.299Z,19.80
2022-07-27T00:29:16.046Z,19.70
2022-07-27T00:31:43.849Z,19.60
2022-07-27T00:34:11.636Z,19.60
2022-07-27T00:36:39.332Z,19.70
2022-07-27T00:39:08.726Z,19.80
2022-07-27T00:41:37.372Z,19.70
2022-07-27T00:44:06.743Z,19.70
2022-07-27T00:46:34.563Z,19.60
2022-07-27T00:49:02.525Z,19.70
2022-07-27T00:51:30.456Z,19.70
2022-07-27T00:53:58.192Z,20.10
2022-07-27T00:56:27.307Z,20.00
2022-07-27T00:58:55.042Z,19.70
2022-07-27T01:01:22.839Z,19.70
2022-07-27T01:03:50.650Z,19.90
2022-07-27T01:06:27.133Z,20.00
2022-07-27T01:09:15.937Z,20.40
2022-07-27T01:11:45.052Z,20.00
2022-07-27T01:14:13.331Z,19.90
2022-07-27T01:16:41.220Z,20.20
2022-07-27T01:19:10.185Z,20.40
2022-07-27T01:21:39.427Z,20.30
2022-07-27T01:24:07.944Z,20.30
2022-07-27T01:26:36.047Z,20.40
2022-07-27T01:29:03.795Z,20.80
2022-07-27T01:31:31.888Z,21.10
2022-07-27T01:33:59.819Z,21.00
2022-07-27T01:36:27.917Z,21.00
2022-07-27T01:38:58.165Z,20.80
2022-07-27T01:41:26.592Z,20.80
2022-07-27T01:43:54.337Z,21.00
2022-07-27T01:46:22.158Z,21.10
2022-07-27T01:48:50.112Z,20.90
2022-07-27T01:51:17.895Z,20.80
2022-07-27T01:53:45.645Z,20.60
2022-07-27T01:56:15.058Z,20.40
2022-07-27T01:58:43.461Z,20.40
2022-07-27T02:01:11.605Z,20.20
2022-07-27T02:03:39.392Z,20.10
2022-07-27T02:06:07.296Z,20.30
2022-07-27T02:08:35.095Z,20.20
2022-07-27T02:11:20.720Z,20.30
2022-07-27T02:13:50.128Z,20.30
2022-07-27T02:16:18.470Z,20.40
2022-07-27T02:18:46.444Z,20.60
2022-07-27T02:21:16.731Z,20.70
2022-07-27T02:23:46.763Z,20.80
2022-07-27T02:26:14.489Z,20.60
2022-07-27T02:28:42.275Z,20.60
2022-07-27T02:31:11.321Z,20.40
2022-07-27T02:33:39.006Z,20.40
2022-07-27T02:36:06.902Z,20.50
2022-07-27T02:38:34.630Z,20.50
2022-07-27T02:41:06.839Z,20.60
2022-07-27T02:43:34.567Z,20.60
2022-07-27T02:46:02.394Z,20.60
2022-07-27T02:48:32.328Z,20.50
2022-07-27T02:51:00.966Z,20.50
2022-07-27T02:53:28.879Z,20.40
2022-07-27T02:55:56.873Z,20.30
2022-07-27T02:58:24.570Z,20.30
2022-07-27T03:00:58.212Z,20.30
2022-07-27T03:03:35.986Z,20.30
2022-07-27T03:06:06.586Z,20.20
2022-07-27T03:08:34.376Z,20.00
2022-07-27T03:11:02.076Z,20.00
2022-07-27T03:13:29.859Z,20.00
2022-07-27T03:15:58.030Z,19.80
2022-07-27T03:18:25.874Z,19.90
2022-07-27T03:20:53.620Z,19.80
2022-07-27T03:23:22.672Z,20.00
2022-07-27T03:25:50.362Z,20.20
2022-07-27T03:28:18.092Z,20.60
2022-07-27T03:30:46.479Z,20.70
2022-07-27T03:33:14.194Z,20.40
2022-07-27T03:35:41.915Z,20.60
2022-07-27T03:38:09.727Z,20.50
2022-07-27T03:40:40.744Z,20.50
2022-07-27T03:43:08.799Z,20.60
2022-07-27T03:45:36.568Z,20.60
2022-07-27T03:48:04.435Z,20.60
2022-07-27T03:50:32.155Z,20.90
2022-07-27T03:52:59.911Z,21.10
2022-07-27T03:55:27.620Z,20.80
2022-07-27T03:57:56.664Z,20.70
2022-07-27T04:00:24.681Z,20.80
2022-07-27T04:02:52.778Z,20.70
2022-07-27T04:05:21.704Z,20.70
2022-07-27T04:07:54.625Z,20.60
2022-07-27T04:10:23.088Z,20.70
2022-07-27T04:12:52.751Z,20.60
2022-07-27T04:15:22.313Z,20.40
2022-07-27T04:17:55.778Z,20.10
2022-07-27T04:20:24.495Z,20.10
2022-07-27T04:22:52.200Z,20.30
2022-07-27T04:25:19.923Z,19.90
2022-07-27T04:27:47.667Z,19.70
2022-07-27T04:30:15.527Z,19.60
2022-07-27T04:32:44.581Z,19.60
2022-07-27T04:35:12.496Z,19.40
2022-07-27T04:37:40.204Z,19.40
2022-07-27T04:40:25.757Z,19.30
2022-07-27T04:42:53.487Z,19.20
2022-07-27T04:45:21.266Z,19.20
2022-07-27T04:47:50.356Z,19.20
2022-07-27T04:50:18.058Z,19.00
2022-07-27T04:52:46.236Z,18.90
2022-07-27T04:55:13.996Z,18.70
2022-07-27T04:57:42.221Z,18.60
2022-07-27T05:00:10.748Z,18.50
2022-07-27T05:02:40.108Z,18.40
2022-07-27T05:05:09.820Z,18.40
2022-07-27T05:07:37.579Z,18.40
2022-07-27T05:10:05.747Z,18.30
2022-07-27T05:12:33.458Z,18.40
2022-07-27T05:15:01.193Z,18.30
2022-07-27T05:17:28.975Z,18.40
2022-07-27T05:19:56.686Z,18.60
2022-07-27T05:22:25.801Z,18.50
2022-07-27T05:24:53.808Z,18.50
2022-07-27T05:27:21.510Z,18.50
2022-07-27T05:29:49.583Z,18.40
2022-07-27T05:32:17.537Z,18.40
2022-07-27T05:34:46.045Z,18.40
2022-07-27T05:37:13.970Z,18.40
2022-07-27T05:39:43.550Z,18.40
2022-07-27T05:42:11.335Z,18.40
2022-07-27T05:44:39.060Z,18.40
2022-07-27T05:47:06.837Z,18.40
2022-07-27T05:49:39.219Z,18.50
2022-07-27T05:52:07.220Z,18.50
2022-07-27T05:54:34.931Z,18.60
2022-07-27T05:57:04.029Z,18.50
2022-07-27T05:59:32.751Z,18.50
2022-07-27T06:02:00.944Z,18.50
2022-07-27T06:04:28.668Z,18.50
2022-07-27T06:07:14.268Z,18.40
2022-07-27T06:09:41.957Z,18.50
2022-07-27T06:12:11.165Z,18.60
2022-07-27T06:14:39.002Z,18.50
2022-07-27T06:17:07.612Z,18.50
2022-07-27T06:19:39.483Z,18.70
2022-07-27T06:22:07.514Z,18.90
2022-07-27T06:24:35.308Z,18.80
2022-07-27T06:27:03.156Z,18.80
2022-07-27T06:29:32.207Z,18.80
2022-07-27T06:32:00.079Z,18.90
2022-07-27T06:34:28.743Z,19.00
2022-07-27T06:36:59.228Z,19.00
2022-07-27T06:39:26.982Z,19.10
2022-07-27T06:41:58.259Z,19.30
2022-07-27T06:44:26.262Z,19.50
2022-07-27T06:46:55.386Z,19.60
2022-07-27T06:49:23.223Z,19.60
2022-07-27T06:51:51.000Z,19.50
2022-07-27T06:54:18.768Z,19.60
2022-07-27T06:56:46.602Z,19.60
2022-07-27T06:59:14.771Z,19.60
2022-07-27T07:01:48.361Z,19.60
2022-07-27T07:04:18.008Z,19.40
2022-07-27T07:06:53.255Z,19.50
2022-07-27T07:09:22.058Z,19.40
2022-07-27T07:11:49.767Z,19.40
2022-07-27T07:14:17.490Z,19.50
2022-07-27T07:16:45.230Z,19.80
2022-07-27T07:19:13.420Z,20.10
2022-07-27T07:21:42.834Z,20.30
2022-07-27T07:24:10.531Z,20.40
2022-07-27T07:26:40.502Z,20.40
2022-07-27T07:29:09.127Z,20.60
2022-07-27T07:31:37.891Z,20.70
2022-07-27T07:34:05.754Z,20.90
2022-07-27T07:36:33.477Z,20.90
2022-07-27T07:39:02.525Z,20.90
2022-07-27T07:41:30.258Z,20.90
2022-07-27T07:43:58.106Z,21.00
2022-07-27T07:46:26.044Z,21.00
2022-07-27T07:48:53.819Z,21.10
2022-07-27T07:51:21.947Z,21.20
2022-07-27T07:53:49.631Z,21.30
2022-07-27T07:56:18.757Z,21.40
2022-07-27T07:58:46.544Z,21.50
2022-07-27T08:01:14.245Z,21.20
2022-07-27T08:03:45.006Z,21.30
2022-07-27T08:06:15.192Z,21.30
2022-07-27T08:08:42.900Z,21.60
2022-07-27T08:11:10.623Z,21.70
2022-07-27T08:13:39.678Z,22.00
2022-07-27T08:16:07.549Z,22.30
2022-07-27T08:18:35.344Z,22.40
2022-07-27T08:21:03.211Z,22.40
2022-07-27T08:23:31.728Z,22.70
2022-07-27T08:26:01.847Z,22.80
2022-07-27T08:28:36.867Z,22.80
2022-07-27T08:31:15.198Z,22.80
2022-07-27T08:33:46.689Z,22.90
2022-07-27T08:36:14.399Z,22.60
2022-07-27T08:38:42.258Z,22.70
2022-07-27T08:41:11.200Z,22.70
2022-07-27T08:43:39.786Z,22.60
2022-07-27T08:46:11.193Z,22.70
2022-07-27T08:48:39.607Z,22.40
2022-07-27T08:51:07.837Z,22.10
2022-07-27T08:53:52.807Z,21.80
2022-07-27T08:56:21.913Z,21.70
2022-07-27T08:58:49.695Z,21.60
2022-07-27T09:01:18.925Z,21.40
2022-07-27T09:03:47.319Z,21.30
2022-07-27T09:06:15.044Z,21.60
2022-07-27T09:08:46.738Z,21.90
2022-07-27T09:11:17.677Z,22.40
2022-07-27T09:13:45.435Z,22.80
2022-07-27T09:16:18.055Z,23.00
2022-07-27T09:18:48.266Z,23.20
2022-07-27T09:21:17.633Z,22.90
2022-07-27T09:23:45.933Z,22.90
2022-07-27T09:26:31.290Z,23.20
2022-07-27T09:29:01.973Z,23.50
2022-07-27T09:31:30.026Z,23.70
2022-07-27T09:34:00.127Z,23.80
2022-07-27T09:36:29.095Z,24.00
2022-07-27T09:39:02.496Z,24.40
2022-07-27T09:41:39.718Z,24.60
2022-07-27T09:46:55.528Z,24.00
2022-07-27T09:49:28.798Z,23.60
2022-07-27T09:52:00.180Z,24.10
2022-07-27T09:54:29.040Z,24.70
2022-07-27T09:57:01.066Z,25.20
2022-07-27T09:59:29.615Z,25.40
2022-07-27T10:01:57.523Z,25.30
2022-07-27T10:04:25.447Z,25.40
2022-07-27T10:07:02.749Z,25.30
2022-07-27T10:09:31.316Z,25.40
2022-07-27T10:11:59.124Z,25.30
2022-07-27T10:14:26.835Z,25.20
2022-07-27T10:16:56.122Z,25.20
2022-07-27T10:19:26.731Z,25.00
2022-07-27T10:21:55.833Z,25.20
2022-07-27T10:24:28.822Z,25.30
2022-07-27T10:26:56.864Z,25.10
2022-07-27T10:29:25.233Z,25.00
2022-07-27T10:32:00.314Z,24.80
2022-07-27T10:34:35.455Z,24.50
2022-07-27T10:37:14.404Z,24.10
2022-07-27T10:39:43.077Z,23.80
2022-07-27T10:42:25.203Z,23.70
2022-07-27T10:44:54.039Z,23.90
2022-07-27T10:47:29.207Z,23.70
2022-07-27T10:50:11.786Z,23.60
2022-07-27T10:52:43.423Z,23.70
2022-07-27T10:55:35.195Z,24.60
2022-07-27T10:58:32.519Z,25.50
2022-07-27T11:01:00.723Z,26.20
2022-07-27T11:03:29.558Z,26.00
2022-07-27T11:06:02.081Z,26.10
2022-07-27T11:08:47.111Z,26.10
2022-07-27T11:11:16.518Z,26.30
2022-07-27T11:13:45.826Z,25.80
2022-07-27T11:16:23.865Z,25.40
2022-07-27T11:18:58.088Z,25.00
2022-07-27T11:21:26.877Z,24.90
2022-07-27T11:23:55.765Z,24.80
2022-07-27T11:26:24.214Z,24.80
2022-07-27T11:28:53.376Z,24.90
2022-07-27T11:31:45.241Z,24.90
2022-07-27T11:34:10.450Z,24.90
2022-07-27T11:36:39.750Z,24.40
2022-07-27T11:39:14.561Z,24.20
2022-07-27T11:44:33.283Z,24.20
2022-07-27T11:47:02.520Z,24.20
2022-07-27T11:49:31.359Z,24.10
2022-07-27T11:52:00.507Z,24.00
2022-07-27T11:54:29.159Z,23.90
2022-07-27T11:56:57.763Z,23.90
2022-07-27T11:59:27.367Z,24.00
2022-07-27T12:01:58.909Z,23.90
2022-07-27T12:04:27.576Z,23.80
2022-07-27T12:07:03.630Z,23.80
2022-07-27T12:09:36.815Z,23.90
2022-07-27T12:12:11.006Z,23.70
2022-07-27T12:14:39.225Z,23.80
2022-07-27T12:17:15.895Z,23.80
2022-07-27T12:19:43.773Z,23.90
2022-07-27T12:22:11.475Z,24.00
2022-07-27T12:24:40.548Z,23.90
2022-07-27T12:27:09.826Z,23.90
2022-07-27T12:29:57.113Z,23.70
2022-07-27T12:32:26.540Z,23.60
2022-07-27T12:34:54.987Z,23.60
2022-07-27T12:37:23.033Z,23.90
2022-07-27T12:39:51.005Z,24.30
2022-07-27T12:42:18.733Z,25.30
2022-07-27T12:44:46.922Z,25.70
2022-07-27T12:47:32.076Z,25.90
2022-07-27T12:50:01.782Z,25.80
2022-07-27T12:52:29.692Z,25.30
2022-07-27T12:54:57.661Z,24.70
2022-07-27T12:57:46.674Z,24.50
2022-07-27T13:00:15.298Z,24.40
2022-07-27T13:02:43.150Z,24.30
2022-07-27T13:05:13.804Z,24.20
2022-07-27T13:07:43.056Z,24.20
2022-07-27T13:10:11.569Z,24.40
2022-07-27T13:12:39.712Z,24.50
2022-07-27T13:15:09.055Z,24.30
2022-07-27T13:17:37.059Z,24.10
2022-07-27T13:20:05.177Z,24.00
2022-07-27T13:22:34.905Z,24.20
2022-07-27T13:25:02.715Z,24.90
2022-07-27T13:27:43.788Z,25.70
2022-07-27T13:30:13.154Z,26.40
2022-07-27T13:32:41.738Z,26.70
2022-07-27T13:35:10.125Z,26.50
2022-07-27T13:37:39.239Z,26.00
2022-07-27T13:40:07.672Z,25.90
2022-07-27T13:42:35.548Z,25.90
2022-07-27T13:45:10.002Z,25.50
2022-07-27T13:47:38.753Z,24.90
2022-07-27T13:50:13.314Z,24.60
2022-07-27T13:52:46.905Z,24.60
2022-07-27T13:55:15.108Z,24.70
2022-07-27T13:57:42.872Z,24.50
2022-07-27T14:00:11.240Z,24.40
2022-07-27T14:02:39.777Z,24.50
2022-07-27T14:05:09.191Z,25.10
2022-07-27T14:08:00.627Z,25.70
2022-07-27T14:10:39.662Z,25.80
2022-07-27T14:13:09.031Z,25.90
2022-07-27T14:15:53.056Z,26.40
2022-07-27T14:18:22.862Z,26.90
2022-07-27T14:20:50.582Z,27.30
2022-07-27T14:23:19.610Z,27.80
2022-07-27T14:25:47.486Z,27.90
2022-07-27T14:28:16.036Z,28.30
2022-07-27T14:30:43.855Z,28.00
2022-07-27T14:33:11.680Z,27.90
2022-07-27T14:35:40.934Z,28.10
2022-07-27T14:38:09.234Z,27.70
2022-07-27T14:40:38.347Z,27.20
2022-07-27T14:43:06.284Z,26.80
2022-07-27T14:45:45.236Z,26.70
2022-07-27T14:48:20.348Z,26.80
2022-07-27T14:50:48.967Z,26.60
2022-07-27T14:53:16.711Z,26.50
2022-07-27T14:55:45.724Z,27.10
2022-07-27T14:58:13.400Z,27.70
2022-07-27T15:00:41.274Z,28.50
2022-07-27T15:03:08.956Z,29.00
2022-07-27T15:05:49.722Z,28.20
2022-07-27T15:08:18.642Z,27.60
2022-07-27T15:10:48.072Z,27.20
2022-07-27T15:13:15.950Z,27.30
2022-07-27T15:15:43.931Z,27.40
2022-07-27T15:18:11.702Z,27.50
2022-07-27T15:20:39.428Z,27.20
2022-07-27T15:23:07.216Z,27.60
2022-07-27T15:25:34.935Z,28.20
2022-07-27T15:28:04.067Z,28.50
2022-07-27T15:30:37.862Z,28.70
2022-07-27T15:33:06.689Z,28.80
2022-07-27T15:35:34.595Z,28.80
2022-07-27T15:38:02.320Z,28.90
2022-07-27T15:40:41.403Z,28.90
2022-07-27T15:43:11.784Z,28.40
2022-07-27T15:45:40.243Z,28.40
2022-07-27T15:48:09.351Z,28.40
2022-07-27T15:50:37.454Z,28.10
2022-07-27T15:53:05.744Z,27.70
2022-07-27T15:55:33.689Z,27.60
2022-07-27T15:58:01.638Z,27.70
2022-07-27T16:00:34.219Z,27.10
2022-07-27T16:03:05.806Z,26.80
2022-07-27T16:05:33.892Z,26.90
2022-07-27T16:08:01.623Z,26.70
2022-07-27T16:10:29.924Z,26.70
2022-07-27T16:13:00.391Z,27.00
2022-07-27T16:15:42.484Z,26.90
2022-07-27T16:18:12.391Z,26.50
2022-07-27T16:20:40.438Z,26.20
2022-07-27T16:23:18.601Z,25.90
2022-07-27T16:26:07.607Z,25.70
2022-07-27T16:28:38.457Z,25.40
2022-07-27T16:31:06.582Z,25.30
2022-07-27T16:33:35.706Z,25.10
2022-07-27T16:36:03.774Z,24.80
2022-07-27T16:38:31.473Z,24.90
2022-07-27T16:40:59.173Z,24.80
2022-07-27T16:43:37.995Z,24.80
2022-07-27T16:46:07.205Z,24.70
2022-07-27T16:48:42.395Z,24.70
2022-07-27T16:51:11.981Z,24.60
2022-07-27T16:53:39.743Z,24.50
2022-07-27T16:56:08.801Z,24.30
2022-07-27T16:58:36.651Z,24.30
2022-07-27T17:01:05.029Z,24.20
2022-07-27T17:03:32.755Z,24.10
2022-07-27T17:06:05.957Z,24.00
2022-07-27T17:08:34.540Z,24.00
2022-07-27T17:11:02.845Z,23.90
2022-07-27T17:13:34.071Z,24.00
2022-07-27T17:16:02.767Z,24.00
2022-07-27T17:18:34.209Z,24.00
2022-07-27T17:21:07.352Z,24.00
2022-07-27T17:23:38.082Z,23.90
2022-07-27T17:26:06.703Z,23.90
2022-07-27T17:28:36.576Z,23.70
2022-07-27T17:31:04.577Z,23.60
2022-07-27T17:33:32.398Z,23.50
2022-07-27T17:36:00.500Z,23.40
2022-07-27T17:38:29.607Z,23.10
2022-07-27T17:40:57.589Z,23.10
2022-07-27T17:43:25.350Z,23.00
2022-07-27T17:45:53.183Z,23.00
2022-07-27T17:48:21.112Z,22.90
2022-07-27T17:50:48.892Z,22.90
2022-07-27T17:53:16.626Z,22.70
2022-07-27T17:55:45.711Z,22.70
2022-07-27T17:58:14.293Z,22.70
2022-07-27T18:00:42.084Z,22.60
2022-07-27T18:03:12.571Z,22.50
2022-07-27T18:05:40.703Z,22.40
2022-07-27T18:08:08.726Z,22.40
2022-07-27T18:10:38.662Z,22.30
2022-07-27T18:13:08.128Z,22.20
2022-07-27T18:15:48.785Z,22.10
2022-07-27T18:18:17.264Z,22.10
2022-07-27T18:20:46.104Z,22.10
2022-07-27T18:23:14.084Z,22.10
2022-07-27T18:25:42.164Z,22.00
2022-07-27T18:28:11.252Z,22.00
2022-07-27T18:30:39.031Z,22.00
2022-07-27T18:33:06.835Z,22.00
2022-07-27T18:35:34.571Z,21.90
2022-07-27T18:38:02.326Z,21.90
2022-07-27T18:40:30.167Z,21.90
2022-07-27T18:42:57.877Z,21.90
2022-07-27T18:45:34.687Z,21.80
2022-07-27T18:48:02.841Z,21.80
2022-07-27T18:50:33.358Z,21.80
2022-07-27T18:53:03.583Z,21.70
2022-07-27T18:55:31.299Z,21.60
2022-07-27T18:57:59.028Z,21.50
2022-07-27T19:00:28.438Z,21.50
2022-07-27T19:02:58.187Z,21.40
2022-07-27T19:05:32.319Z,21.40
2022-07-27T19:08:11.376Z,21.30
2022-07-27T19:10:41.489Z,21.20
2022-07-27T19:13:09.202Z,21.10
2022-07-27T19:15:38.553Z,21.00
2022-07-27T19:18:06.605Z,21.00
2022-07-27T19:20:36.152Z,21.00
2022-07-27T19:23:04.124Z,20.90
2022-07-27T19:25:33.555Z,20.80
2022-07-27T19:28:01.414Z,20.80
2022-07-27T19:30:29.261Z,20.60
2022-07-27T19:32:58.440Z,20.60
2022-07-27T19:35:26.143Z,20.50
2022-07-27T19:37:53.883Z,20.50
2022-07-27T19:43:09.606Z,20.40
2022-07-27T19:45:37.352Z,20.20
2022-07-27T19:48:08.126Z,20.20
2022-07-27T19:50:36.064Z,20.10
2022-07-27T19:53:04.194Z,20.00
2022-07-27T19:55:31.983Z,20.00
2022-07-27T19:57:59.770Z,19.90
2022-07-27T20:00:27.570Z,19.90
2022-07-27T20:02:55.381Z,19.80
2022-07-27T20:05:24.693Z,19.70
2022-07-27T20:07:52.430Z,19.60
2022-07-27T20:10:21.545Z,19.60
2022-07-27T20:12:49.305Z,19.50
2022-07-27T20:15:17.031Z,19.50
2022-07-27T20:17:44.782Z,19.40
2022-07-27T20:20:13.462Z,19.40
2022-07-27T20:22:42.640Z,19.40
2022-07-27T20:25:10.899Z,19.30
2022-07-27T20:27:38.943Z,19.40
2022-07-27T20:30:07.285Z,19.20
2022-07-27T20:32:35.034Z,19.20
2022-07-27T20:35:03.480Z,19.20
2022-07-27T20:37:31.246Z,19.20
2022-07-27T20:40:00.303Z,19.20
2022-07-27T20:42:28.035Z,19.20
2022-07-27T20:44:55.872Z,19.00
2022-07-27T20:47:23.559Z,19.20
2022-07-27T20:49:51.363Z,19.10
2022-07-27T20:52:19.102Z,19.00
2022-07-27T20:54:46.844Z,19.00
2022-07-27T20:57:16.061Z,18.90
2022-07-27T20:59:43.768Z,19.00
2022-07-27T21:02:11.511Z,18.90
2022-07-27T21:04:39.250Z,19.00
2022-07-27T21:07:06.964Z,18.90
2022-07-27T21:09:34.653Z,18.90
2022-07-27T21:12:02.536Z,18.80
2022-07-27T21:14:31.649Z,18.80
2022-07-27T21:16:59.423Z,18.70
2022-07-27T21:19:27.236Z,18.70
2022-07-27T21:21:54.933Z,18.60
2022-07-27T21:24:22.865Z,18.60
2022-07-27T21:26:52.115Z,18.60
2022-07-27T21:29:20.400Z,18.70
2022-07-27T21:31:50.378Z,18.60
2022-07-27T21:34:19.623Z,18.60
2022-07-27T21:36:47.821Z,18.60
2022-07-27T21:39:15.618Z,18.50
2022-07-27T21:41:43.377Z,18.50
2022-07-27T21:44:11.604Z,18.40
2022-07-27T21:46:39.656Z,18.40
2022-07-27T21:49:10.147Z,18.40
2022-07-27T21:51:38.077Z,18.40
2022-07-27T21:54:06.179Z,18.40
2022-07-27T21:56:41.066Z,18.30
2022-07-27T21:59:10.203Z,18.30
2022-07-27T22:01:37.962Z,18.30
2022-07-27T22:04:06.180Z,18.30
2022-07-27T22:06:35.812Z,18.20
2022-07-27T22:09:03.593Z,18.20
2022-07-27T22:11:31.299Z,18.30
2022-07-27T22:13:59.052Z,18.30
2022-07-27T22:16:26.917Z,18.20
2022-07-27T22:18:55.316Z,18.10
2022-07-27T22:21:23.112Z,18.10
2022-07-27T22:23:52.186Z,18.10
2022-07-27T22:26:20.057Z,18.10
2022-07-27T22:28:47.761Z,18.10
2022-07-27T22:31:22.487Z,18.00
2022-07-27T22:33:50.985Z,18.00
2022-07-27T22:36:18.776Z,17.90
2022-07-27T22:38:46.468Z,17.90
2022-07-27T22:41:15.544Z,17.90
2022-07-27T22:43:43.286Z,17.90
2022-07-27T22:46:11.095Z,17.90
2022-07-27T22:48:39.115Z,17.80
2022-07-27T22:51:07.682Z,17.80
2022-07-27T22:53:35.476Z,17.70
2022-07-27T22:56:03.161Z,17.80
2022-07-27T22:58:32.229Z,17.80
2022-07-27T23:01:00.200Z,17.80
2022-07-27T23:03:28.105Z,17.70
2022-07-27T23:05:55.868Z,17.70
2022-07-27T23:08:23.616Z,17.60
2022-07-27T23:10:51.321Z,17.70
2022-07-27T23:13:19.496Z,17.60
2022-07-27T23:15:48.600Z,17.60
2022-07-27T23:18:16.662Z,17.60
2022-07-27T23:20:44.843Z,17.60
2022-07-27T23:23:16.319Z,17.60
2022-07-27T23:25:44.824Z,17.50
2022-07-27T23:28:12.539Z,17.50
2022-07-27T23:30:40.439Z,17.50
2022-07-27T23:33:09.809Z,17.50
2022-07-27T23:35:37.551Z,17.50
2022-07-27T23:38:05.266Z,17.50
2022-07-27T23:40:33.109Z,17.50
2022-07-27T23:43:00.823Z,17.40
2022-07-27T23:45:28.644Z,17.40
2022-07-27T23:47:56.544Z,17.40
2022-07-27T23:50:25.707Z,17.40
2022-07-27T23:52:53.395Z,17.40
2022-07-27T23:55:21.231Z,17.30
2022-07-27T23:57:48.995Z,17.30
